Мир виртуальной авиации

Полеты на авиасимуляторах
...

Аэропорт UERP

  METAR И TAF ИНФОРМАЦИЯ
METAR FOR UERP
ADDS - METARS form results

(0438 UTC 26 September 2022)
Data provider http://aviationweather.gov/metar/data/
 
METAR text: UERP 260430Z 29002MPS 9999 BKN012CB OVC100 M04/M07 Q1010 R35/880333 NOSIG RMK QFE713
Conditions at: UERP (POLYARNY , RU) observed 0430 UTC 26 September 2022
Temperature: -4.0°C (25°F)
Dewpoint: -7.0°C (19°F) [RH = 80%]
Pressure (altimeter): 29.82 inches Hg (1010.0 mb)
Winds: from the WNW (290 degrees) at 5 MPH (4 knots; 2.1 m/s)
Visibility: 6 or more miles (10+ km)
Ceiling: 1200 feet AGL
Clouds: broken clouds at 1200 feet AGL
overcast cloud deck at 10000 feet AGL
Weather: no significant weather observed at this time

METAR text: UERP 260400Z 29003MPS 9999 BKN012CB OVC100 M05/M07 Q1010 R35/880333 NOSIG RMK QFE713
Conditions at: UERP (POLYARNY , RU) observed 0400 UTC 26 September 2022
Temperature: -5.0°C (23°F)
Dewpoint: -7.0°C (19°F) [RH = 86%]
Pressure (altimeter): 29.82 inches Hg (1010.0 mb)
Winds: from the WNW (290 degrees) at 7 MPH (6 knots; 3.1 m/s)
Visibility: 6 or more miles (10+ km)
Ceiling: 1200 feet AGL
Clouds: broken clouds at 1200 feet AGL
overcast cloud deck at 10000 feet AGL
Weather: no significant weather observed at this time

Forecast for: UERP (POLYARNY , RU)
Text: TAF UERP 260200Z 2603/2703 30003MPS 9000 BKN015CB OVC100
Forecast period: 0300 UTC 26 September 2022 to 0300 UTC 27 September 2022
Forecast type: FROM: standard forecast or significant change
Winds: from the WNW (300 degrees) at 7 MPH (6 knots; 3.1 m/s)
Visibility: 6 miles (9 km)
Ceiling: 1500 feet AGL
Clouds: broken clouds at 1500 feet AGL
overcast cloud deck at 10000 feet AGL
Weather: no significant weather forecast for this period
Text: TEMPO 2603/2612 5000 -SHSN SCT009 BKN013CB OVC100
Forecast period: 0300 to 1200 UTC 26 September 2022
Forecast type: TEMPORARY: The following changes expected for less than half the time period
Visibility: 3 miles (5 km)
Ceiling: 1300 feet AGL
Clouds: scattered clouds at 900 feet AGL
broken clouds at 1300 feet AGL
overcast cloud deck at 10000 feet AGL
Weather: -SHSN  (light snow showers)

  КАРТА АЭРОПОРТ
  ИНФОРМАЦИЯ О ВПП
ВПП 17 Длина ВПП 10170 ft Ширина ВПП 138 ft
Высота ВПП 1657 ft Порог смещения ВПП 0 ft Курс ВПП 164
ВПП 35 Длина ВПП 10170 ft Ширина ВПП 138 ft
Высота ВПП 1640 ft Порог смещения ВПП 0 ft Курс ВПП 344
  ЧАСТОТА АЭРОПОРТА
Тип ACC Название CON Частота 132.1 MHZ
Тип PMSV Название METEO Частота 127.2 MHZ
  НАВИГАЦИОННЫЕ СРЕДСТВА AIDS
Тип NDB Название Poliarny Частота 525 KHZ